createdAt,value
2023-02-25T00:01:39.321Z,95233.13
2023-02-25T00:04:06.762Z,95230.34
2023-02-25T00:06:34.078Z,95234.41
2023-02-25T00:09:01.461Z,95234.78
2023-02-25T00:11:30.251Z,95234.66
2023-02-25T00:13:57.391Z,95231.47
2023-02-25T00:16:25.959Z,95221.53
2023-02-25T00:18:57.433Z,95226.94
2023-02-25T00:21:25.377Z,95237.66
2023-02-25T00:23:53.723Z,95229.78
2023-02-25T00:26:22.628Z,95234.13
2023-02-25T00:28:50.702Z,95229.50
2023-02-25T00:31:22.708Z,95228.94
2023-02-25T00:33:51.728Z,95229.69
2023-02-25T00:36:23.374Z,95233.00
2023-02-25T00:38:56.384Z,95224.09
2023-02-25T00:41:30.712Z,95212.44
2023-02-25T00:44:01.066Z,95212.63
2023-02-25T00:46:30.882Z,95207.59
2023-02-25T00:48:59.096Z,95190.97
2023-02-25T00:51:30.216Z,95176.28
2023-02-25T00:53:58.054Z,95175.59
2023-02-25T00:56:26.283Z,95185.78
2023-02-25T00:58:54.117Z,95176.47
2023-02-25T01:01:27.839Z,95169.88
2023-02-25T01:03:56.895Z,95152.78
2023-02-25T01:06:28.350Z,95145.59
2023-02-25T01:08:56.986Z,95146.63
2023-02-25T01:11:31.559Z,95151.22
2023-02-25T01:14:07.022Z,95146.94
2023-02-25T01:16:36.304Z,95150.47
2023-02-25T01:19:13.727Z,95143.97
2023-02-25T01:21:48.473Z,95152.22
2023-02-25T01:24:21.280Z,95144.13
2023-02-25T01:26:51.744Z,95146.25
2023-02-25T01:29:23.248Z,95142.50
2023-02-25T01:32:00.856Z,95146.38
2023-02-25T01:34:29.634Z,95143.94
2023-02-25T01:36:57.290Z,95145.97
2023-02-25T01:39:26.736Z,95143.47
2023-02-25T01:41:56.851Z,95135.38
2023-02-25T01:44:25.786Z,95147.03
2023-02-25T01:46:54.949Z,95151.63
2023-02-25T01:49:55.651Z,95152.69
2023-02-25T01:52:25.302Z,95148.50
2023-02-25T01:54:57.238Z,95140.63
2023-02-25T01:57:26.029Z,95131.91
2023-02-25T01:59:55.045Z,95130.13
2023-02-25T02:02:27.770Z,95123.25
2023-02-25T02:04:55.920Z,95121.28
2023-02-25T02:07:24.913Z,95119.34
2023-02-25T02:10:00.180Z,95114.59
2023-02-25T02:12:35.722Z,95115.75
2023-02-25T02:15:08.642Z,95122.38
2023-02-25T02:18:02.667Z,95124.25
2023-02-25T02:20:57.743Z,95121.28
2023-02-25T02:23:59.770Z,95117.41
2023-02-25T02:26:52.193Z,95113.03
2023-02-25T02:29:22.009Z,95125.53
2023-02-25T02:32:21.452Z,95127.13
2023-02-25T02:35:35.494Z,95126.13
2023-02-25T02:38:35.964Z,95137.72
2023-02-25T02:41:35.634Z,95149.66
2023-02-25T02:44:34.198Z,95142.84
2023-02-25T02:47:09.679Z,95153.44
2023-02-25T02:49:46.874Z,95146.75
2023-02-25T02:52:24.273Z,95163.25
2023-02-25T02:55:22.633Z,95157.47
2023-02-25T02:57:59.775Z,95179.88
2023-02-25T03:00:34.443Z,95183.09
2023-02-25T03:03:36.653Z,95180.94
2023-02-25T03:06:13.222Z,95189.97
2023-02-25T03:09:11.025Z,95200.19
2023-02-25T03:11:38.542Z,95178.47
2023-02-25T03:14:09.174Z,95208.84
2023-02-25T03:16:45.511Z,95219.66
2023-02-25T03:19:21.773Z,95209.13
2023-02-25T03:22:23.350Z,95228.81
2023-02-25T03:25:31.086Z,95226.75
2023-02-25T03:28:30.652Z,95230.28
2023-02-25T03:31:21.723Z,95225.06
2023-02-25T03:34:08.358Z,95236.75
2023-02-25T03:36:42.344Z,95224.22
2023-02-25T03:39:21.643Z,95224.72
2023-02-25T03:41:54.531Z,95227.53
2023-02-25T03:44:28.570Z,95218.72
2023-02-25T03:46:57.599Z,95224.91
2023-02-25T03:49:51.972Z,95234.09
2023-02-25T03:52:23.284Z,95235.28
2023-02-25T03:54:57.342Z,95252.72
2023-02-25T03:57:35.137Z,95246.84
2023-02-25T04:00:15.616Z,95250.88
2023-02-25T04:02:44.250Z,95242.69
2023-02-25T04:05:12.976Z,95229.72
2023-02-25T04:07:40.632Z,95240.13
2023-02-25T04:10:10.787Z,95238.34
2023-02-25T04:12:38.219Z,95228.94
2023-02-25T04:15:07.297Z,95232.25
2023-02-25T04:17:35.494Z,95231.91
2023-02-25T04:20:03.445Z,95233.09
2023-02-25T04:22:31.184Z,95246.06
2023-02-25T04:24:58.470Z,95254.56
2023-02-25T04:27:27.343Z,95260.38
2023-02-25T04:29:54.629Z,95254.81
2023-02-25T04:32:22.032Z,95256.69
2023-02-25T04:34:49.410Z,95261.47
2023-02-25T04:37:17.363Z,95262.66
2023-02-25T04:39:44.557Z,95274.47
2023-02-25T04:42:11.799Z,95266.00
2023-02-25T04:44:38.999Z,95273.13
2023-02-25T04:47:06.420Z,95267.84
2023-02-25T04:49:44.964Z,95265.16
2023-02-25T04:52:15.927Z,95267.78
2023-02-25T04:54:43.217Z,95268.66
2023-02-25T04:57:12.192Z,95276.56
2023-02-25T04:59:39.604Z,95272.44
2023-02-25T05:02:07.903Z,95282.47
2023-02-25T05:04:39.593Z,95280.56
2023-02-25T05:07:08.112Z,95271.91
2023-02-25T05:09:35.532Z,95275.59
2023-02-25T05:12:03.254Z,95289.09
2023-02-25T05:14:32.868Z,95280.50
2023-02-25T05:17:00.179Z,95287.63
2023-02-25T05:19:27.378Z,95281.31
2023-02-25T05:21:54.660Z,95275.47
2023-02-25T05:24:23.733Z,95281.53
2023-02-25T05:26:54.233Z,95280.81
2023-02-25T05:29:21.625Z,95264.47
2023-02-25T05:31:51.797Z,95252.97
2023-02-25T05:34:19.267Z,95248.75
2023-02-25T05:36:46.916Z,95255.97
2023-02-25T05:39:14.615Z,95275.00
2023-02-25T05:41:42.143Z,95269.47
2023-02-25T05:44:11.733Z,95266.22
2023-02-25T05:46:38.973Z,95266.88
2023-02-25T05:49:06.249Z,95274.09
2023-02-25T05:51:33.546Z,95284.16
2023-02-25T05:54:00.738Z,95286.19
2023-02-25T05:56:31.687Z,95289.31
2023-02-25T05:58:59.578Z,95274.75
2023-02-25T06:01:29.515Z,95279.09
2023-02-25T06:04:00.252Z,95274.72
2023-02-25T06:06:31.042Z,95275.91
2023-02-25T06:08:58.920Z,95279.78
2023-02-25T06:11:30.806Z,95278.09
2023-02-25T06:13:59.596Z,95291.91
2023-02-25T06:16:32.678Z,95286.69
2023-02-25T06:19:01.409Z,95291.84
2023-02-25T06:21:29.256Z,95302.91
2023-02-25T06:23:56.693Z,95299.38
2023-02-25T06:26:24.194Z,95306.09
2023-02-25T06:28:51.596Z,95310.91
2023-02-25T06:31:20.657Z,95314.53
2023-02-25T06:33:48.753Z,95319.72
2023-02-25T06:36:16.401Z,95309.94
2023-02-25T06:38:46.087Z,95305.88
2023-02-25T06:41:17.954Z,95305.72
2023-02-25T06:43:46.265Z,95316.09
2023-02-25T06:46:15.200Z,95296.94
2023-02-25T06:48:42.620Z,95302.84
2023-02-25T06:51:10.738Z,95305.50
2023-02-25T06:53:39.888Z,95294.59
2023-02-25T06:56:10.792Z,95300.31
2023-02-25T06:58:39.046Z,95301.72
2023-02-25T07:01:14.006Z,95309.28
2023-02-25T07:03:43.669Z,95309.50
2023-02-25T07:06:11.567Z,95312.06
2023-02-25T07:08:38.919Z,95319.47
2023-02-25T07:11:33.708Z,95310.13
2023-02-25T07:14:01.669Z,95311.78
2023-02-25T07:16:34.697Z,95327.84
2023-02-25T07:19:02.610Z,95327.09
2023-02-25T07:21:31.155Z,95331.16
2023-02-25T07:23:58.798Z,95331.56
2023-02-25T07:26:28.506Z,95338.94
2023-02-25T07:28:59.848Z,95338.84
2023-02-25T07:31:28.938Z,95332.59
2023-02-25T07:33:57.749Z,95335.00
2023-02-25T07:36:26.198Z,95343.75
2023-02-25T07:38:54.392Z,95337.78
2023-02-25T07:41:23.238Z,95344.66
2023-02-25T07:43:50.718Z,95349.53
2023-02-25T07:46:18.067Z,95347.06
2023-02-25T07:48:45.489Z,95350.53
2023-02-25T07:51:18.600Z,95355.63
2023-02-25T07:53:47.968Z,95368.50
2023-02-25T07:56:18.457Z,95366.19
2023-02-25T07:58:46.482Z,95371.19
2023-02-25T08:01:27.045Z,95351.78
2023-02-25T08:03:56.643Z,95352.31
2023-02-25T08:06:23.948Z,95355.97
2023-02-25T08:08:52.197Z,95353.97
2023-02-25T08:11:22.199Z,95344.94
2023-02-25T08:13:50.015Z,95343.81
2023-02-25T08:16:19.531Z,95346.47
2023-02-25T08:18:47.865Z,95349.72
2023-02-25T08:21:18.443Z,95351.06
2023-02-25T08:23:46.156Z,95351.16
2023-02-25T08:26:13.424Z,95353.47
2023-02-25T08:28:40.695Z,95357.25
2023-02-25T08:31:11.657Z,95356.78
2023-02-25T08:33:45.683Z,95358.44
2023-02-25T08:36:26.962Z,95360.19
2023-02-25T08:38:57.439Z,95359.13
2023-02-25T08:41:28.382Z,95362.19
2023-02-25T08:43:57.991Z,95364.91
2023-02-25T08:46:28.412Z,95348.38
2023-02-25T08:48:56.356Z,95349.56
2023-02-25T08:51:34.138Z,95348.56
2023-02-25T08:54:14.270Z,95355.59
2023-02-25T08:56:45.533Z,95359.41
2023-02-25T08:59:16.209Z,95355.16
2023-02-25T09:01:48.374Z,95359.81
2023-02-25T09:04:20.106Z,95353.25
2023-02-25T09:06:47.964Z,95356.16
2023-02-25T09:09:20.540Z,95348.72
2023-02-25T09:11:49.316Z,95357.16
2023-02-25T09:14:17.312Z,95355.97
2023-02-25T09:16:45.022Z,95364.16
2023-02-25T09:19:15.838Z,95351.91
2023-02-25T09:21:43.037Z,95363.72
2023-02-25T09:24:10.709Z,95361.66
2023-02-25T09:26:38.446Z,95365.09
2023-02-25T09:29:07.600Z,95365.16
2023-02-25T09:31:37.603Z,95367.50
2023-02-25T09:34:09.961Z,95381.22
2023-02-25T09:36:37.362Z,95372.59
2023-02-25T09:39:10.305Z,95386.00
2023-02-25T09:41:55.535Z,95380.91
2023-02-25T09:44:51.245Z,95392.59
2023-02-25T09:47:40.308Z,95390.09
2023-02-25T09:50:18.608Z,95400.41
2023-02-25T09:53:15.672Z,95395.19
2023-02-25T09:55:47.807Z,95393.72
2023-02-25T09:58:41.146Z,95396.94
2023-02-25T10:01:18.965Z,95393.53
2023-02-25T10:04:20.769Z,95375.09
2023-02-25T10:06:51.191Z,95379.25
2023-02-25T10:10:22.022Z,95378.81
2023-02-25T10:13:16.828Z,95353.72
2023-02-25T10:16:11.080Z,95364.16
2023-02-25T10:19:01.546Z,95346.31
2023-02-25T10:22:02.138Z,95361.03
2023-02-25T10:24:37.396Z,95367.09
2023-02-25T10:27:33.939Z,95368.31
2023-02-25T10:30:45.064Z,95365.22
2023-02-25T10:33:38.201Z,95368.34
2023-02-25T10:36:10.820Z,95372.16
2023-02-25T10:38:52.064Z,95378.75
2023-02-25T10:41:23.517Z,95377.53
2023-02-25T10:43:51.813Z,95368.88
2023-02-25T10:46:54.716Z,95378.34
2023-02-25T10:49:29.212Z,95370.69
2023-02-25T10:52:05.223Z,95376.69
2023-02-25T10:54:36.157Z,95372.59
2023-02-25T10:57:13.700Z,95361.19
2023-02-25T10:59:43.474Z,95365.06
2023-02-25T11:02:30.399Z,95374.72
2023-02-25T11:04:58.246Z,95379.22
2023-02-25T11:07:30.960Z,95358.84
2023-02-25T11:10:21.932Z,95360.88
2023-02-25T11:12:55.236Z,95356.66
2023-02-25T11:15:37.873Z,95363.78
2023-02-25T11:18:29.812Z,95356.13
2023-02-25T11:21:01.982Z,95372.75
2023-02-25T11:23:46.620Z,95357.34
2023-02-25T11:26:33.716Z,95361.25
2023-02-25T11:29:19.037Z,95354.22
2023-02-25T11:31:57.899Z,95372.38
2023-02-25T11:34:31.971Z,95366.03
2023-02-25T11:37:43.382Z,95350.13
2023-02-25T11:40:32.902Z,95364.97
2023-02-25T11:43:03.191Z,95373.44
2023-02-25T11:45:33.482Z,95373.31
2023-02-25T11:48:04.567Z,95373.13
2023-02-25T11:50:53.967Z,95376.25
2023-02-25T11:53:39.196Z,95369.03
2023-02-25T11:56:27.380Z,95383.84
2023-02-25T11:59:45.825Z,95367.44
2023-02-25T12:02:20.865Z,95374.41
2023-02-25T12:05:28.521Z,95388.66
2023-02-25T12:08:33.119Z,95384.53
2023-02-25T12:11:03.195Z,95395.66
2023-02-25T12:14:21.689Z,95392.91
2023-02-25T12:17:20.520Z,95396.16
2023-02-25T12:20:24.956Z,95401.69
2023-02-25T12:23:26.241Z,95409.00
2023-02-25T12:26:34.708Z,95402.19
2023-02-25T12:29:38.565Z,95400.97
2023-02-25T12:32:22.857Z,95408.72
2023-02-25T12:35:07.758Z,95403.03
2023-02-25T12:38:00.237Z,95392.69
2023-02-25T12:40:36.566Z,95407.34
2023-02-25T12:43:27.823Z,95401.25
2023-02-25T12:46:47.739Z,95405.66
2023-02-25T12:49:52.444Z,95395.31
2023-02-25T12:52:28.846Z,95408.34
2023-02-25T12:55:40.816Z,95399.66
2023-02-25T12:58:45.281Z,95411.31
2023-02-25T13:01:39.923Z,95411.63
2023-02-25T13:04:56.123Z,95412.59
2023-02-25T13:07:29.234Z,95413.88
2023-02-25T13:10:04.148Z,95422.22
2023-02-25T13:12:58.439Z,95420.41
2023-02-25T13:16:01.464Z,95413.38
2023-02-25T13:19:06.477Z,95423.44
2023-02-25T13:21:52.215Z,95413.13
2023-02-25T13:24:57.097Z,95415.91
2023-02-25T13:27:56.275Z,95424.72
2023-02-25T13:30:44.313Z,95417.28
2023-02-25T13:33:46.205Z,95419.38
2023-02-25T13:36:48.836Z,95420.81
2023-02-25T13:39:54.597Z,95419.25
2023-02-25T13:43:05.723Z,95433.34
2023-02-25T13:46:25.200Z,95424.88
2023-02-25T13:49:41.131Z,95427.47
2023-02-25T13:52:53.646Z,95434.13
2023-02-25T13:55:53.900Z,95431.59
2023-02-25T13:59:27.110Z,95441.88
2023-02-25T14:02:35.040Z,95433.84
2023-02-25T14:05:56.289Z,95439.44
2023-02-25T14:09:02.109Z,95436.69
2023-02-25T14:11:57.733Z,95444.19
2023-02-25T14:15:14.148Z,95446.47
2023-02-25T14:18:31.101Z,95447.53
2023-02-25T14:21:27.868Z,95454.41
2023-02-25T14:23:56.421Z,95457.16
2023-02-25T14:26:33.632Z,95462.53
2023-02-25T14:29:34.606Z,95463.97
2023-02-25T14:32:29.904Z,95465.94
2023-02-25T14:35:47.615Z,95464.59
2023-02-25T14:38:37.783Z,95461.72
2023-02-25T14:41:33.672Z,95462.28
2023-02-25T14:44:14.754Z,95469.25
2023-02-25T14:46:50.683Z,95482.75
2023-02-25T14:49:33.475Z,95478.19
2023-02-25T14:52:46.092Z,95482.94
2023-02-25T14:55:43.627Z,95496.78
2023-02-25T14:59:00.720Z,95488.53
2023-02-25T15:01:54.727Z,95497.09
2023-02-25T15:05:04.774Z,95521.97
2023-02-25T15:08:21.175Z,95526.25
2023-02-25T15:11:16.978Z,95531.03
2023-02-25T15:14:07.699Z,95526.03
2023-02-25T15:16:55.538Z,95527.16
2023-02-25T15:19:25.264Z,95540.28
2023-02-25T15:22:21.626Z,95538.31
2023-02-25T15:24:52.479Z,95545.84
2023-02-25T15:27:33.108Z,95544.28
2023-02-25T15:30:05.818Z,95553.75
2023-02-25T15:32:57.563Z,95555.69
2023-02-25T15:35:54.057Z,95555.56
2023-02-25T15:38:50.339Z,95562.81
2023-02-25T15:41:29.973Z,95567.56
2023-02-25T15:43:57.760Z,95584.50
2023-02-25T15:46:34.270Z,95587.09
2023-02-25T15:49:35.413Z,95591.97
2023-02-25T15:52:06.407Z,95592.44
2023-02-25T15:54:33.489Z,95591.94
2023-02-25T15:57:22.208Z,95597.13
2023-02-25T15:59:57.731Z,95608.84
2023-02-25T16:02:30.809Z,95616.94
2023-02-25T16:05:09.852Z,95625.34
2023-02-25T16:07:52.990Z,95624.31
2023-02-25T16:10:44.691Z,95638.41
2023-02-25T16:13:40.110Z,95642.84
2023-02-25T16:16:10.640Z,95645.75
2023-02-25T16:18:47.758Z,95658.78
2023-02-25T16:21:17.888Z,95655.38
2023-02-25T16:23:45.304Z,95670.25
2023-02-25T16:27:03.514Z,95677.03
2023-02-25T16:29:49.310Z,95682.81
2023-02-25T16:32:33.119Z,95681.25
2023-02-25T16:35:23.762Z,95691.72
2023-02-25T16:38:39.012Z,95695.91
2023-02-25T16:41:06.342Z,95702.16
2023-02-25T16:43:39.531Z,95707.66
2023-02-25T16:46:13.699Z,95705.53
2023-02-25T16:48:54.869Z,95705.31
2023-02-25T16:51:41.462Z,95717.81
2023-02-25T16:54:38.125Z,95716.53
2023-02-25T16:57:09.453Z,95717.56
2023-02-25T16:59:38.868Z,95725.41
2023-02-25T17:02:15.092Z,95732.72
2023-02-25T17:05:22.143Z,95735.09
2023-02-25T17:07:56.715Z,95738.47
2023-02-25T17:10:47.039Z,95746.84
2023-02-25T17:13:24.588Z,95749.69
2023-02-25T17:15:53.155Z,95750.97
2023-02-25T17:18:32.789Z,95757.78
2023-02-25T17:21:35.737Z,95757.81
2023-02-25T17:24:11.791Z,95761.72
2023-02-25T17:26:48.872Z,95769.50
2023-02-25T17:29:18.433Z,95772.63
2023-02-25T17:31:50.875Z,95772.66
2023-02-25T17:34:30.429Z,95783.34
2023-02-25T17:37:04.374Z,95789.06
2023-02-25T17:39:32.755Z,95788.81
2023-02-25T17:42:00.256Z,95797.97
2023-02-25T17:44:36.840Z,95801.06
2023-02-25T17:47:08.283Z,95808.16
2023-02-25T17:49:37.965Z,95808.16
2023-02-25T17:52:19.550Z,95819.47
2023-02-25T17:55:01.029Z,95814.09
2023-02-25T17:57:32.108Z,95823.00
2023-02-25T18:00:20.638Z,95828.78
2023-02-25T18:02:48.030Z,95829.31
2023-02-25T18:05:18.662Z,95828.53
2023-02-25T18:08:22.122Z,95832.97
2023-02-25T18:10:58.080Z,95836.63
2023-02-25T18:13:35.296Z,95833.44
2023-02-25T18:16:41.259Z,95840.72
2023-02-25T18:19:32.765Z,95846.97
2023-02-25T18:22:00.217Z,95853.25
2023-02-25T18:24:36.496Z,95843.84
2023-02-25T18:27:26.927Z,95838.78
2023-02-25T18:29:58.630Z,95845.13
2023-02-25T18:32:27.641Z,95847.72
2023-02-25T18:34:55.021Z,95852.25
2023-02-25T18:37:22.317Z,95853.00
2023-02-25T18:39:51.350Z,95858.41
2023-02-25T18:42:19.240Z,95853.44
2023-02-25T18:44:47.661Z,95858.22
2023-02-25T18:47:16.884Z,95865.72
2023-02-25T18:49:45.533Z,95867.31
2023-02-25T18:52:25.248Z,95864.09
2023-02-25T18:54:52.501Z,95873.06
2023-02-25T18:57:26.523Z,95886.03
2023-02-25T18:59:54.024Z,95886.78
2023-02-25T19:02:45.774Z,95883.66
2023-02-25T19:05:13.126Z,95881.28
2023-02-25T19:07:40.566Z,95890.38
2023-02-25T19:10:09.076Z,95894.59
2023-02-25T19:12:36.445Z,95899.75
2023-02-25T19:15:08.683Z,95905.31
2023-02-25T19:17:36.034Z,95908.25
2023-02-25T19:20:04.442Z,95910.38
2023-02-25T19:22:31.724Z,95904.69
2023-02-25T19:24:59.323Z,95913.75
2023-02-25T19:27:29.143Z,95916.28
2023-02-25T19:29:59.648Z,95909.63
2023-02-25T19:32:27.305Z,95913.53
2023-02-25T19:34:55.071Z,95909.84
2023-02-25T19:37:22.349Z,95917.81
2023-02-25T19:39:49.652Z,95923.03
2023-02-25T19:42:16.924Z,95927.59
2023-02-25T19:44:44.274Z,95933.63
2023-02-25T19:47:11.535Z,95929.50
2023-02-25T19:49:38.816Z,95935.09
2023-02-25T19:52:06.385Z,95942.50
2023-02-25T19:54:33.708Z,95949.97
2023-02-25T19:57:01.770Z,95948.59
2023-02-25T19:59:31.024Z,95956.78
2023-02-25T20:01:58.497Z,95953.03
2023-02-25T20:04:25.910Z,95957.69
2023-02-25T20:06:53.203Z,95953.84
2023-02-25T20:09:20.852Z,95955.84
2023-02-25T20:11:48.951Z,95962.66
2023-02-25T20:14:17.418Z,95963.94
2023-02-25T20:16:45.127Z,95964.78
2023-02-25T20:19:12.461Z,95969.06
2023-02-25T20:21:39.787Z,95967.53
2023-02-25T20:24:07.376Z,95972.13
2023-02-25T20:26:34.887Z,95965.25
2023-02-25T20:29:02.419Z,95963.94
2023-02-25T20:31:30.399Z,95968.75
2023-02-25T20:34:01.353Z,95973.69
2023-02-25T20:36:51.539Z,95967.34
2023-02-25T20:39:37.519Z,95965.25
2023-02-25T20:42:20.874Z,95974.88
2023-02-25T20:44:51.521Z,95977.53
2023-02-25T20:47:25.125Z,95977.56
2023-02-25T20:49:54.997Z,95986.75
2023-02-25T20:52:22.571Z,95987.91
2023-02-25T20:54:50.046Z,95980.34
2023-02-25T20:57:20.963Z,95985.47
2023-02-25T20:59:48.619Z,95988.00
2023-02-25T21:02:18.416Z,95987.19
2023-02-25T21:04:46.703Z,95973.50
2023-02-25T21:07:14.666Z,95983.41
2023-02-25T21:09:42.195Z,95985.06
2023-02-25T21:12:10.348Z,95989.94
2023-02-25T21:14:37.617Z,95988.88
2023-02-25T21:17:09.544Z,95988.50
2023-02-25T21:19:40.124Z,95985.78
2023-02-25T21:22:08.597Z,95991.03
2023-02-25T21:24:36.871Z,95985.28
2023-02-25T21:27:04.915Z,95988.28
2023-02-25T21:29:32.574Z,95987.94
2023-02-25T21:31:59.871Z,95990.56
2023-02-25T21:34:27.406Z,95994.09
2023-02-25T21:36:58.453Z,96004.56
2023-02-25T21:39:26.213Z,96004.50
2023-02-25T21:41:53.672Z,96008.78
2023-02-25T21:44:21.138Z,96006.88
2023-02-25T21:46:48.542Z,96009.69
2023-02-25T21:49:15.768Z,96007.88
2023-02-25T21:51:43.258Z,96013.53
2023-02-25T21:54:10.796Z,96012.13
2023-02-25T21:56:40.142Z,96004.06
2023-02-25T21:59:07.304Z,96012.44
2023-02-25T22:01:40.893Z,96007.13
2023-02-25T22:04:09.911Z,96012.06
2023-02-25T22:06:38.121Z,96015.34
2023-02-25T22:09:07.031Z,96013.53
2023-02-25T22:11:37.075Z,96019.16
2023-02-25T22:14:07.969Z,96013.09
2023-02-25T22:16:37.345Z,96017.94
2023-02-25T22:19:05.475Z,96018.19
2023-02-25T22:21:35.571Z,96022.53
2023-02-25T22:24:05.712Z,96028.72
2023-02-25T22:26:35.630Z,96034.19
2023-02-25T22:29:08.264Z,96036.88
2023-02-25T22:31:36.191Z,96049.78
2023-02-25T22:34:03.983Z,96050.22
2023-02-25T22:36:31.510Z,96055.09
2023-02-25T22:38:58.818Z,96048.38
2023-02-25T22:41:28.971Z,96051.63
2023-02-25T22:43:58.364Z,96055.41
2023-02-25T22:46:29.499Z,96046.34
2023-02-25T22:48:57.710Z,96043.28
2023-02-25T22:51:35.582Z,96053.28
2023-02-25T22:54:04.850Z,96048.28
2023-02-25T22:56:33.873Z,96060.78
2023-02-25T22:59:01.489Z,96071.75
2023-02-25T23:01:28.798Z,96068.44
2023-02-25T23:03:57.184Z,96062.69
2023-02-25T23:06:42.284Z,96075.78
2023-02-25T23:09:10.702Z,96075.25
2023-02-25T23:11:41.718Z,96078.16
2023-02-25T23:14:09.031Z,96082.09
2023-02-25T23:16:43.447Z,96079.41
2023-02-25T23:19:15.828Z,96077.97
2023-02-25T23:21:44.033Z,96077.84
2023-02-25T23:24:18.641Z,96081.38
2023-02-25T23:26:50.746Z,96086.19
2023-02-25T23:29:18.442Z,96087.59
2023-02-25T23:31:47.851Z,96094.97
2023-02-25T23:34:22.941Z,96102.66
2023-02-25T23:36:50.746Z,96116.22
2023-02-25T23:39:18.413Z,96118.59
2023-02-25T23:41:45.930Z,96121.06
2023-02-25T23:44:14.344Z,96122.16
2023-02-25T23:46:43.470Z,96127.50
2023-02-25T23:49:15.732Z,96123.97
2023-02-25T23:51:45.898Z,96125.31
2023-02-25T23:54:16.833Z,96133.25
2023-02-25T23:56:45.072Z,96134.06
2023-02-25T23:59:13.427Z,96145.09
